Time;durP1;ratioP1;P1;durP2;ratioP2;P2;SDS_P1;SDS_P2;PMS_P1;PMS_P2;Temp;Humidity;BMP_temperature;BMP_pressure;BME280_temperature;BME280_humidity;BME280_pressure;Samples;Min_cycle;Max_cycle;Signal;HPM_P1;HPM_P2
2020/12/26 00:00:10;;;;;;;11.77;4.00;;;4.90;99.90;;;;;;6162672;23;20039;-90
2020/12/26 00:02:48;;;;;;;4.95;3.10;;;5.00;99.90;;;;;;6161866;23;20650;-90
2020/12/26 00:05:25;;;;;;;8.88;3.38;;;5.00;99.90;;;;;;6162069;23;20531;-90
2020/12/26 00:08:02;;;;;;;9.48;3.65;;;5.00;99.90;;;;;;6162777;23;20017;-90
2020/12/26 00:10:38;;;;;;;7.63;2.85;;;5.10;99.90;;;;;;6161984;23;20018;-90
2020/12/26 00:13:21;;;;;;;10.40;2.80;;;5.10;99.90;;;;;;6162661;23;20048;-90
2020/12/26 00:16:00;;;;;;;9.65;2.70;;;5.10;99.90;;;;;;6162955;23;20310;-90
2020/12/26 00:18:35;;;;;;;6.85;2.63;;;5.20;99.90;;;;;;6162339;23;20021;-90
2020/12/26 00:21:15;;;;;;;5.70;2.60;;;5.20;99.90;;;;;;6186193;23;20013;-90
2020/12/26 00:23:53;;;;;;;6.75;2.00;;;5.30;99.90;;;;;;6161965;23;20456;-90
2020/12/26 00:26:31;;;;;;;5.35;2.13;;;5.30;99.90;;;;;;6162434;23;20064;-91
2020/12/26 00:29:06;;;;;;;8.20;2.28;;;5.30;99.90;;;;;;6163685;23;20024;-90
2020/12/26 00:31:47;;;;;;;6.43;2.22;;;5.40;99.90;;;;;;6164516;23;20017;-90
2020/12/26 00:34:25;;;;;;;4.90;2.10;;;5.40;99.90;;;;;;6164305;23;20044;-90
2020/12/26 00:37:00;;;;;;;;;;;5.40;99.90;;;;;;6164291;23;20083;-90
2020/12/26 00:39:40;;;;;;;8.65;2.42;;;5.40;99.90;;;;;;6164004;23;19972;-90
2020/12/26 00:42:24;;;;;;;9.15;2.40;;;5.40;99.90;;;;;;6164621;23;20021;-90
2020/12/26 00:45:01;;;;;;;7.25;2.05;;;5.40;99.90;;;;;;6164457;23;20255;-90
2020/12/26 00:47:41;;;;;;;6.10;2.23;;;5.40;99.90;;;;;;6164783;23;20017;-90
2020/12/26 00:50:22;;;;;;;7.30;2.40;;;5.40;99.90;;;;;;6164680;23;20025;-90
2020/12/26 00:53:01;;;;;;;8.32;1.98;;;5.40;99.90;;;;;;6163336;23;20020;-90
2020/12/26 00:55:41;;;;;;;3.83;1.85;;;5.40;99.90;;;;;;6188023;23;20049;-90
2020/12/26 00:58:22;;;;;;;5.55;1.90;;;5.40;99.90;;;;;;6165309;23;20056;-90
2020/12/26 01:01:02;;;;;;;6.60;2.25;;;5.50;99.90;;;;;;6163823;23;20039;-90
2020/12/26 01:03:46;;;;;;;5.25;2.20;;;5.50;99.90;;;;;;6164167;23;20025;-90
2020/12/26 01:06:24;;;;;;;10.80;2.78;;;5.50;99.90;;;;;;6164264;23;20013;-90
2020/12/26 01:09:01;;;;;;;5.00;2.53;;;5.50;99.90;;;;;;6163731;23;20028;-90
2020/12/26 01:11:44;;;;;;;6.68;2.67;;;5.50;99.90;;;;;;6164890;23;20437;-90
2020/12/26 01:14:23;;;;;;;6.47;2.40;;;5.50;99.90;;;;;;6164294;23;20048;-90
2020/12/26 01:17:00;;;;;;;5.78;1.90;;;5.50;99.90;;;;;;6164912;23;20025;-89
2020/12/26 01:20:00;;;;;;;4.90;2.25;;;5.50;99.90;;;;;;6169288;23;20019;-90
2020/12/26 01:22:41;;;;;;;7.22;2.90;;;5.50;99.90;;;;;;6164782;23;20040;-91
2020/12/26 01:25:18;;;;;;;9.25;2.13;;;5.50;99.90;;;;;;6164610;23;20433;-90
2020/12/26 01:28:00;;;;;;;9.35;2.17;;;5.50;99.90;;;;;;6165625;23;20017;-90
2020/12/26 01:30:39;;;;;;;7.97;2.20;;;5.50;99.90;;;;;;6164081;23;20023;-90
2020/12/26 01:33:18;;;;;;;8.63;2.20;;;5.50;99.90;;;;;;6163700;23;20017;-90
2020/12/26 01:35:58;;;;;;;6.35;1.83;;;5.50;99.90;;;;;;6163916;23;20068;-90
2020/12/26 01:38:35;;;;;;;5.88;2.00;;;5.50;99.90;;;;;;6163069;23;20021;-91
2020/12/26 01:41:19;;;;;;;8.45;2.05;;;5.50;99.90;;;;;;6163706;23;20067;-90
2020/12/26 01:44:06;;;;;;;7.07;1.92;;;5.50;99.90;;;;;;6164154;23;20021;-90
2020/12/26 01:46:51;;;;;;;7.13;2.33;;;5.50;99.90;;;;;;6164142;23;20023;-90
2020/12/26 01:49:30;;;;;;;7.72;1.60;;;5.50;99.90;;;;;;6164404;23;20048;-90
2020/12/26 01:52:12;;;;;;;5.70;1.67;;;5.50;99.90;;;;;;6163902;23;20013;-90
2020/12/26 01:54:49;;;;;;;6.80;1.77;;;5.50;99.90;;;;;;6163883;23;20369;-91
2020/12/26 01:57:30;;;;;;;4.20;1.58;;;5.60;99.90;;;;;;6162965;23;20028;-90
2020/12/26 02:00:15;;;;;;;5.72;1.60;;;5.60;99.90;;;;;;6163568;23;20024;-90
2020/12/26 02:02:57;;;;;;;4.80;1.45;;;5.60;99.90;;;;;;6164193;23;20317;-90
2020/12/26 02:05:37;;;;;;;4.05;1.60;;;5.60;99.90;;;;;;6162947;23;20047;-90
2020/12/26 02:08:21;;;;;;;4.47;1.70;;;5.60;99.90;;;;;;6163891;23;20052;-91
2020/12/26 02:11:01;;;;;;;4.63;1.92;;;5.60;99.90;;;;;;6187691;23;20024;-90
2020/12/26 02:13:46;;;;;;;5.13;2.00;;;5.60;99.90;;;;;;6164490;23;20107;-90
2020/12/26 02:16:25;;;;;;;3.83;1.55;;;5.60;99.90;;;;;;6164034;23;20019;-90
2020/12/26 02:19:06;;;;;;;7.75;1.75;;;5.60;99.90;;;;;;6163874;23;20044;-90
2020/12/26 02:21:48;;;;;;;4.78;1.98;;;5.60;99.90;;;;;;6163087;23;20021;-90
2020/12/26 02:24:31;;;;;;;6.35;1.85;;;5.60;99.90;;;;;;6163865;23;20017;-90
2020/12/26 02:27:09;;;;;;;6.70;1.95;;;5.60;99.90;;;;;;6163010;23;20017;-90
2020/12/26 02:29:55;;;;;;;4.57;1.67;;;5.60;99.90;;;;;;6165072;23;20027;-90
2020/12/26 02:32:35;;;;;;;6.35;1.95;;;5.60;99.90;;;;;;6163401;23;20024;-90
2020/12/26 02:35:19;;;;;;;7.18;2.10;;;5.60;99.90;;;;;;6163271;23;20021;-90
2020/12/26 02:37:59;;;;;;;6.88;2.10;;;5.60;99.90;;;;;;6163733;23;20096;-90
2020/12/26 02:40:38;;;;;;;5.28;1.90;;;5.60;99.90;;;;;;6164210;23;20017;-90
2020/12/26 02:43:33;;;;;;;11.32;2.15;;;5.60;99.90;;;;;;6163363;23;20185;-91
2020/12/26 02:46:11;;;;;;;4.63;1.70;;;5.60;99.90;;;;;;6163916;23;20025;-90
2020/12/26 02:48:47;;;;;;;6.68;1.80;;;5.60;99.90;;;;;;6163605;23;20035;-91
2020/12/26 02:51:27;;;;;;;3.88;1.40;;;5.60;99.90;;;;;;6162293;23;20380;-91
2020/12/26 02:54:04;;;;;;;4.32;1.95;;;5.60;99.90;;;;;;6162629;23;20033;-90
2020/12/26 02:56:41;;;;;;;4.05;1.38;;;5.60;99.90;;;;;;6163399;23;20025;-90
2020/12/26 02:59:20;;;;;;;7.70;1.60;;;5.60;99.90;;;;;;6163565;23;20047;-90
2020/12/26 03:02:04;;;;;;;4.70;1.85;;;5.60;99.90;;;;;;6163098;23;20025;-90
2020/12/26 03:04:44;;;;;;;6.03;2.58;;;5.60;99.90;;;;;;6163100;23;20021;-90
2020/12/26 03:07:28;;;;;;;5.05;1.90;;;5.60;99.90;;;;;;6163774;23;20377;-90
2020/12/26 03:10:05;;;;;;;5.53;2.15;;;5.60;99.90;;;;;;6162778;23;20033;-90
2020/12/26 03:12:48;;;;;;;6.38;1.70;;;5.50;99.90;;;;;;6163797;23;20048;-90
2020/12/26 03:15:28;;;;;;;4.82;1.83;;;5.50;99.90;;;;;;6162127;23;20036;-90
2020/12/26 03:18:07;;;;;;;6.15;2.08;;;5.50;99.90;;;;;;6162969;23;20441;-90
2020/12/26 03:20:46;;;;;;;4.03;1.40;;;5.40;99.90;;;;;;6162739;23;20071;-91
2020/12/26 03:23:21;;;;;;;;;;;5.40;99.90;;;;;;6163416;23;20096;-91
2020/12/26 03:26:00;;;;;;;3.45;1.42;;;5.40;99.90;;;;;;6162682;23;19916;-90
2020/12/26 03:28:34;;;;;;;5.35;1.58;;;5.30;99.90;;;;;;6163018;23;20041;-90
2020/12/26 03:31:14;;;;;;;6.00;2.00;;;5.30;99.90;;;;;;6163308;23;20013;-90
2020/12/26 03:33:49;;;;;;;7.38;2.42;;;5.30;99.90;;;;;;6161816;23;20017;-90
2020/12/26 03:36:30;;;;;;;6.18;1.60;;;5.20;99.90;;;;;;6163092;23;20467;-90
2020/12/26 03:39:07;;;;;;;9.52;1.65;;;5.20;99.90;;;;;;6162491;23;20437;-90
2020/12/26 03:41:48;;;;;;;5.65;1.90;;;5.10;99.90;;;;;;6162535;23;20096;-90
2020/12/26 03:44:26;;;;;;;6.28;2.15;;;5.10;99.90;;;;;;6163016;23;20433;-90
2020/12/26 03:47:07;;;;;;;7.65;1.58;;;5.00;99.90;;;;;;6162789;23;20013;-90
2020/12/26 03:49:43;;;;;;;6.18;1.88;;;5.00;99.90;;;;;;6186822;23;20021;-90
2020/12/26 03:52:21;;;;;;;4.82;1.90;;;4.90;99.90;;;;;;6163270;23;20088;-90
2020/12/26 03:55:00;;;;;;;4.50;1.50;;;4.90;99.90;;;;;;6163294;23;20021;-90
2020/12/26 03:57:43;;;;;;;6.03;2.13;;;4.90;99.90;;;;;;6162426;23;20021;-90
2020/12/26 04:00:24;;;;;;;3.58;1.42;;;4.90;99.90;;;;;;6162702;23;20314;-90
2020/12/26 04:03:03;;;;;;;4.70;1.63;;;4.80;99.90;;;;;;6163283;23;20017;-90
2020/12/26 04:05:42;;;;;;;2.72;1.75;;;4.80;99.90;;;;;;6161814;23;20100;-90
2020/12/26 04:08:22;;;;;;;6.53;1.70;;;4.80;99.90;;;;;;6162641;23;20013;-90
2020/12/26 04:10:59;;;;;;;7.10;1.80;;;4.80;99.90;;;;;;6162213;23;20040;-89
2020/12/26 04:13:37;;;;;;;8.23;2.33;;;4.80;99.90;;;;;;6162685;23;20089;-90
2020/12/26 04:16:17;;;;;;;5.65;1.65;;;4.80;99.90;;;;;;6163473;23;20017;-90
2020/12/26 04:18:59;;;;;;;8.48;1.80;;;4.80;99.90;;;;;;6162718;23;20449;-90
2020/12/26 04:21:55;;;;;;;4.32;1.70;;;4.90;99.90;;;;;;6166155;23;20044;-90
2020/12/26 04:24:33;;;;;;;4.28;1.48;;;4.90;99.90;;;;;;6162996;23;20021;-90
2020/12/26 04:27:10;;;;;;;5.57;1.50;;;4.90;99.90;;;;;;6162429;23;20334;-90
2020/12/26 04:29:48;;;;;;;4.65;1.58;;;4.90;99.90;;;;;;6162636;23;20048;-90
2020/12/26 04:32:23;;;;;;;3.05;1.50;;;5.00;99.90;;;;;;6162003;23;20017;-89
2020/12/26 04:34:58;;;;;;;3.78;1.60;;;5.00;99.90;;;;;;6161534;23;20021;-90
2020/12/26 04:37:35;;;;;;;4.40;1.52;;;5.00;99.90;;;;;;6162794;23;20017;-90
2020/12/26 04:40:12;;;;;;;4.22;1.50;;;5.10;99.90;;;;;;6162649;23;20095;-90
2020/12/26 04:42:51;;;;;;;6.35;1.67;;;5.10;99.90;;;;;;6162240;23;20329;-89
2020/12/26 04:45:31;;;;;;;5.90;1.50;;;5.10;99.90;;;;;;6161710;23;20021;-90
2020/12/26 04:48:22;;;;;;;4.05;1.60;;;5.10;99.90;;;;;;6163205;23;20013;-90
2020/12/26 04:51:13;;;;;;;4.72;1.30;;;5.20;99.90;;;;;;6161921;23;20027;-90
2020/12/26 04:53:52;;;;;;;4.00;1.58;;;5.20;99.90;;;;;;6161917;23;20017;-90
2020/12/26 04:56:40;;;;;;;4.53;1.33;;;5.20;99.90;;;;;;6162525;23;20029;-90
2020/12/26 04:59:16;;;;;;;2.78;1.20;;;5.20;99.90;;;;;;6161699;23;20029;-90
2020/12/26 05:01:54;;;;;;;4.97;1.50;;;5.20;99.90;;;;;;6161993;23;20100;-90
2020/12/26 05:04:35;;;;;;;5.30;1.38;;;5.20;99.90;;;;;;6162948;23;20040;-91
2020/12/26 05:07:15;;;;;;;7.75;1.50;;;5.30;99.90;;;;;;6162617;23;20128;-90
2020/12/26 05:09:58;;;;;;;8.02;1.50;;;5.30;99.90;;;;;;6162326;23;20021;-90
2020/12/26 05:12:35;;;;;;;4.90;1.30;;;5.30;99.90;;;;;;6161680;23;20024;-90
2020/12/26 05:15:13;;;;;;;7.35;1.50;;;5.30;99.90;;;;;;6162672;23;20314;-90
2020/12/26 05:17:52;;;;;;;4.88;1.92;;;5.30;99.90;;;;;;6187316;23;20074;-90
2020/12/26 05:20:32;;;;;;;4.35;1.58;;;5.40;99.90;;;;;;6163663;23;20072;-91
2020/12/26 05:23:19;;;;;;;7.78;1.60;;;5.40;99.90;;;;;;6164201;23;20014;-90
2020/12/26 05:26:00;;;;;;;6.72;1.80;;;5.40;99.90;;;;;;6165094;23;20017;-91
2020/12/26 05:28:43;;;;;;;6.47;1.67;;;5.40;99.90;;;;;;6188314;23;20013;-91
2020/12/26 05:31:23;;;;;;;5.10;1.92;;;5.40;99.90;;;;;;6164450;23;20051;-91
2020/12/26 05:34:12;;;;;;;4.75;1.77;;;5.40;99.90;;;;;;6164747;23;20017;-90
2020/12/26 05:36:51;;;;;;;6.28;1.83;;;5.50;99.90;;;;;;6163809;23;20021;-90
2020/12/26 05:39:42;;;;;;;4.15;1.80;;;5.50;99.90;;;;;;6164010;23;20021;-90
2020/12/26 05:42:25;;;;;;;4.93;1.80;;;5.50;99.90;;;;;;6187352;23;20313;-90
2020/12/26 05:45:16;;;;;;;10.25;1.67;;;5.50;99.90;;;;;;6163642;23;20021;-90
2020/12/26 05:47:54;;;;;;;2.92;1.40;;;5.50;99.90;;;;;;6162766;23;20028;-90
2020/12/26 05:50:29;;;;;;;1.38;1.15;;;5.50;99.90;;;;;;6187658;23;20025;-90
2020/12/26 05:53:04;;;;;;;5.90;1.63;;;5.50;99.90;;;;;;6163479;23;20097;-90
2020/12/26 05:55:45;;;;;;;5.35;1.50;;;5.50;99.90;;;;;;6164219;23;20032;-90
2020/12/26 05:58:27;;;;;;;2.78;1.30;;;5.50;99.90;;;;;;6187641;23;20079;-90
2020/12/26 06:01:07;;;;;;;2.67;1.08;;;5.60;99.90;;;;;;6164152;23;20469;-90
2020/12/26 06:03:47;;;;;;;4.45;1.50;;;5.60;99.90;;;;;;6164156;23;20017;-90
2020/12/26 06:06:29;;;;;;;5.78;1.58;;;5.50;99.90;;;;;;6163969;23;20437;-91
2020/12/26 06:09:09;;;;;;;4.35;1.20;;;5.60;99.90;;;;;;6163087;23;20021;-90
2020/12/26 06:11:54;;;;;;;3.30;1.30;;;5.60;99.90;;;;;;6163419;23;20048;-90
2020/12/26 06:14:35;;;;;;;5.63;1.33;;;5.60;99.90;;;;;;6164288;23;20021;-90
2020/12/26 06:17:20;;;;;;;4.45;1.20;;;5.60;99.90;;;;;;6164131;23;20105;-91
2020/12/26 06:20:07;;;;;;;7.03;1.40;;;5.70;99.90;;;;;;6163984;23;20024;-90
2020/12/26 06:22:51;;;;;;;1.63;0.80;;;5.70;99.90;;;;;;6163656;23;20025;-90
2020/12/26 06:25:30;;;;;;;6.68;0.95;;;5.80;99.90;;;;;;6162966;23;20075;-91
2020/12/26 06:28:20;;;;;;;6.35;1.00;;;5.80;99.90;;;;;;6187204;23;20024;-90
2020/12/26 06:31:08;;;;;;;2.80;0.70;;;5.90;99.90;;;;;;6163997;23;20028;-90
2020/12/26 06:33:45;;;;;;;4.03;0.77;;;5.90;99.90;;;;;;6163158;23;20017;-90
2020/12/26 06:36:22;;;;;;;2.10;0.82;;;6.00;99.90;;;;;;6162379;23;20017;-90
2020/12/26 06:39:21;;;;;;;1.95;0.70;;;6.00;99.90;;;;;;6187430;23;20066;-90
2020/12/26 06:42:17;;;;;;;3.95;0.63;;;6.10;99.90;;;;;;6164037;23;20013;-91
2020/12/26 06:44:58;;;;;;;3.05;0.85;;;6.10;99.90;;;;;;6163589;23;20017;-90
2020/12/26 06:47:45;;;;;;;2.38;0.82;;;6.10;99.90;;;;;;6163426;23;20033;-91
2020/12/26 06:50:29;;;;;;;1.55;0.80;;;6.10;99.90;;;;;;6163184;23;20020;-90
2020/12/26 06:53:14;;;;;;;2.10;0.57;;;6.20;99.90;;;;;;6163522;23;20093;-90
2020/12/26 06:55:55;;;;;;;6.68;0.90;;;6.20;99.90;;;;;;6163798;23;20022;-90
2020/12/26 06:58:29;;;;;;;3.72;0.68;;;6.20;99.90;;;;;;6162401;23;20017;-90
2020/12/26 07:01:29;;;;;;;3.85;0.60;;;6.30;99.90;;;;;;6163285;23;20025;-90
2020/12/26 07:04:17;;;;;;;4.93;0.70;;;6.30;99.90;;;;;;6164021;23;20433;-91
2020/12/26 07:06:53;;;;;;;3.35;0.70;;;6.30;99.90;;;;;;6187029;23;20024;-91
2020/12/26 07:09:38;;;;;;;2.70;0.65;;;6.40;99.90;;;;;;6163135;23;20021;-90
2020/12/26 07:12:18;;;;;;;3.28;0.90;;;6.40;99.90;;;;;;6162573;23;20044;-90
2020/12/26 07:14:56;;;;;;;1.92;0.60;;;6.40;99.90;;;;;;6162911;23;20040;-90
2020/12/26 07:17:30;;;;;;;2.70;0.70;;;6.40;99.90;;;;;;6162448;23;20017;-90
2020/12/26 07:20:27;;;;;;;3.47;0.90;;;6.40;99.90;;;;;;6164121;23;20028;-91
2020/12/26 07:23:20;;;;;;;2.03;0.70;;;6.40;99.90;;;;;;6163024;23;20033;-91
2020/12/26 07:26:03;;;;;;;3.35;1.17;;;6.50;99.90;;;;;;6163807;23;20021;-90
2020/12/26 07:28:46;;;;;;;1.40;0.65;;;6.50;99.90;;;;;;6163804;23;20329;-91
2020/12/26 07:31:46;;;;;;;2.45;0.65;;;6.50;99.90;;;;;;6162922;23;20024;-90
2020/12/26 07:34:42;;;;;;;5.03;0.90;;;6.50;99.90;;;;;;6162434;23;20036;-90
2020/12/26 07:37:22;;;;;;;3.00;0.77;;;6.60;99.90;;;;;;6163038;23;20024;-90
2020/12/26 07:40:06;;;;;;;4.05;0.70;;;6.60;99.90;;;;;;6163515;23;20525;-90
2020/12/26 07:42:47;;;;;;;3.78;1.10;;;6.60;99.90;;;;;;6162860;23;20021;-90
2020/12/26 07:45:25;;;;;;;2.50;0.68;;;6.60;99.90;;;;;;6162060;23;20021;-91
2020/12/26 07:48:04;;;;;;;2.47;0.80;;;6.60;99.90;;;;;;6163297;23;20024;-91
2020/12/26 07:50:43;;;;;;;2.53;0.60;;;6.70;99.90;;;;;;6163377;23;20096;-91
2020/12/26 07:53:29;;;;;;;1.48;0.60;;;6.70;99.90;;;;;;6163894;23;20079;-91
2020/12/26 07:56:11;;;;;;;1.92;0.50;;;6.70;99.90;;;;;;6163958;23;20041;-90
2020/12/26 07:59:01;;;;;;;2.95;0.52;;;6.70;99.90;;;;;;6165287;23;20753;-90
2020/12/26 08:01:36;;;;;;;3.33;0.43;;;6.80;99.90;;;;;;6163158;23;20496;-91
2020/12/26 08:04:17;;;;;;;1.25;0.50;;;6.80;99.90;;;;;;6163544;23;20457;-91
2020/12/26 08:06:57;;;;;;;3.53;0.60;;;6.80;99.90;;;;;;6163313;23;20036;-91
2020/12/26 08:09:39;;;;;;;0.65;0.50;;;6.90;99.90;;;;;;6162346;23;20445;-92
2020/12/26 08:12:19;;;;;;;2.38;0.40;;;6.90;99.90;;;;;;6162846;23;20033;-91
2020/12/26 08:15:08;;;;;;;0.80;0.50;;;6.80;99.90;;;;;;6164668;23;20040;-91
2020/12/26 08:17:50;;;;;;;1.17;0.40;;;6.90;99.90;;;;;;6162925;23;20020;-91
2020/12/26 08:20:30;;;;;;;1.75;0.60;;;6.80;99.90;;;;;;6162885;23;20069;-92
2020/12/26 08:23:19;;;;;;;2.22;0.70;;;6.80;99.90;;;;;;6186645;23;20025;-91
2020/12/26 08:26:10;;;;;;;1.30;0.60;;;6.80;99.90;;;;;;6186443;23;20021;-91
2020/12/26 08:28:56;;;;;;;1.48;0.50;;;6.80;99.90;;;;;;6185652;23;20040;-91
2020/12/26 08:31:41;;;;;;;1.77;0.57;;;6.80;99.90;;;;;;6163337;23;20017;-90
2020/12/26 08:34:31;;;;;;;2.22;0.73;;;6.80;99.90;;;;;;6163703;23;20017;-91
2020/12/26 08:37:34;;;;;;;1.25;0.60;;;6.90;99.90;;;;;;6162979;23;20470;-91
2020/12/26 08:40:25;;;;;;;0.82;0.60;;;6.90;99.90;;;;;;6164610;23;20024;-91
2020/12/26 08:43:13;;;;;;;3.93;0.60;;;6.90;99.90;;;;;;6163347;23;20453;-91
2020/12/26 08:45:58;;;;;;;1.00;0.50;;;6.90;99.90;;;;;;6186269;23;20021;-91
2020/12/26 08:48:45;;;;;;;3.33;0.55;;;7.00;99.90;;;;;;6163080;23;20069;-92
2020/12/26 08:51:29;;;;;;;2.50;0.77;;;7.00;99.90;;;;;;6165482;23;20014;-91
2020/12/26 08:54:06;;;;;;;1.95;0.50;;;7.10;99.90;;;;;;6163452;23;20516;-90
2020/12/26 08:56:43;;;;;;;1.77;0.52;;;7.10;99.90;;;;;;6163678;23;20325;-92
2020/12/26 08:59:33;;;;;;;2.92;0.52;;;7.20;99.90;;;;;;6164213;23;20501;-92
2020/12/26 09:02:28;;;;;;;2.38;0.50;;;7.30;99.90;;;;;;6166843;23;20017;-90
2020/12/26 09:05:26;;;;;;;4.25;0.43;;;7.30;99.90;;;;;;6165150;23;20073;-91
2020/12/26 09:08:18;;;;;;;2.25;0.60;;;7.30;99.90;;;;;;6165784;23;20020;-92
2020/12/26 09:10:59;;;;;;;5.07;0.52;;;7.30;99.90;;;;;;6164717;23;20073;-92
2020/12/26 09:13:46;;;;;;;4.47;0.40;;;7.30;99.90;;;;;;6165135;23;20023;-92
2020/12/26 09:16:29;;;;;;;5.70;0.65;;;7.30;99.90;;;;;;6164867;23;20027;-92
2020/12/26 09:19:21;;;;;;;1.67;0.40;;;7.40;99.90;;;;;;6166658;23;20492;-92
2020/12/26 09:22:17;;;;;;;4.07;0.50;;;7.40;99.90;;;;;;6165775;23;20039;-92
2020/12/26 09:25:27;;;;;;;1.75;0.38;;;7.40;99.90;;;;;;6168085;23;20400;-92
2020/12/26 09:28:11;;;;;;;3.78;0.55;;;7.40;99.90;;;;;;6187549;23;20024;-92
2020/12/26 09:31:08;;;;;;;1.33;0.30;;;7.50;99.90;;;;;;6164158;23;20021;-92
2020/12/26 09:33:51;;;;;;;3.90;0.57;;;7.50;99.90;;;;;;6164716;23;20027;-92
2020/12/26 09:36:32;;;;;;;2.72;0.70;;;7.60;99.90;;;;;;6163868;23;20441;-91
2020/12/26 09:39:10;;;;;;;4.82;0.70;;;7.60;99.90;;;;;;6163524;23;20021;-91
2020/12/26 09:41:55;;;;;;;2.85;0.70;;;7.70;99.90;;;;;;6163492;23;20096;-93
2020/12/26 09:44:36;;;;;;;2.60;0.80;;;7.80;99.90;;;;;;6163734;23;20330;-91
2020/12/26 09:47:29;;;;;;;5.60;1.02;;;7.80;99.90;;;;;;6165148;23;20440;-92
2020/12/26 09:50:18;;;;;;;4.28;0.93;;;7.90;99.90;;;;;;6164894;23;20040;-92
2020/12/26 09:53:03;;;;;;;3.93;0.90;;;8.00;99.90;;;;;;6165020;23;20499;-92
2020/12/26 09:55:51;;;;;;;5.28;0.68;;;8.00;99.90;;;;;;6164805;23;20044;-91
2020/12/26 09:58:41;;;;;;;2.85;0.68;;;8.10;99.90;;;;;;6165138;23;20333;-91
2020/12/26 10:01:28;;;;;;;3.28;0.80;;;8.10;99.90;;;;;;6163976;23;20027;-92
2020/12/26 10:04:16;;;;;;;4.25;1.20;;;8.10;99.90;;;;;;6164736;23;20392;-92
2020/12/26 10:06:58;;;;;;;9.60;2.55;;;8.10;99.90;;;;;;6164436;23;20029;-92
2020/12/26 10:09:38;;;;;;;6.97;1.67;;;8.10;99.90;;;;;;6163900;23;20031;-92
2020/12/26 10:12:16;;;;;;;4.10;1.50;;;8.10;99.90;;;;;;6163283;23;20096;-91
2020/12/26 10:14:56;;;;;;;3.08;1.35;;;8.10;99.90;;;;;;6163539;23;20017;-92
2020/12/26 10:17:34;;;;;;;5.97;0.98;;;8.20;99.90;;;;;;6163011;23;20021;-92
2020/12/26 10:20:18;;;;;;;6.25;1.00;;;8.10;99.90;;;;;;6164163;23;20409;-92
2020/12/26 10:23:00;;;;;;;5.22;1.20;;;8.10;99.90;;;;;;6163669;23;20026;-91
2020/12/26 10:25:52;;;;;;;2.20;0.77;;;8.10;99.90;;;;;;6166606;23;20445;-91
2020/12/26 10:28:30;;;;;;;6.18;1.33;;;8.10;99.90;;;;;;6163032;23;20017;-91
2020/12/26 10:31:12;;;;;;;7.50;1.50;;;8.10;99.90;;;;;;6164623;23;20041;-91
2020/12/26 10:33:59;;;;;;;6.88;1.50;;;8.20;99.90;;;;;;6164022;23;20040;-91
2020/12/26 10:36:44;;;;;;;4.93;1.30;;;8.30;99.90;;;;;;6162973;23;20429;-91
2020/12/26 10:39:29;;;;;;;5.13;1.55;;;8.40;99.90;;;;;;6163847;23;20021;-91
2020/12/26 10:42:10;;;;;;;2.75;0.80;;;8.50;99.90;;;;;;6163068;23;20114;-91
2020/12/26 10:44:52;;;;;;;2.42;0.50;;;8.60;99.90;;;;;;6163222;23;20017;-91
2020/12/26 10:47:34;;;;;;;2.60;0.50;;;8.70;99.90;;;;;;6163290;23;20013;-91
2020/12/26 10:50:19;;;;;;;4.10;0.30;;;8.70;99.90;;;;;;6163600;23;20036;-91
2020/12/26 10:52:55;;;;;;;1.33;0.30;;;8.80;99.90;;;;;;6163056;23;20025;-91
2020/12/26 10:55:28;;;;;;;1.55;0.40;;;8.90;99.90;;;;;;6162685;23;20373;-92
2020/12/26 10:58:09;;;;;;;3.95;0.52;;;8.90;99.90;;;;;;6163583;23;20021;-92
2020/12/26 11:00:47;;;;;;;;;;;8.90;99.90;;;;;;6162853;23;20091;-91
2020/12/26 11:03:37;;;;;;;0.70;0.30;;;9.00;99.90;;;;;;6163569;23;19916;-92
2020/12/26 11:06:19;;;;;;;1.55;0.20;;;9.00;99.90;;;;;;6162681;23;20036;-91
2020/12/26 11:08:59;;;;;;;2.67;0.30;;;9.10;99.90;;;;;;6163314;23;20028;-92
2020/12/26 11:11:37;;;;;;;0.63;0.15;;;9.10;99.90;;;;;;6163142;23;20069;-92
2020/12/26 11:14:20;;;;;;;3.13;0.20;;;9.10;99.90;;;;;;6163544;23;20020;-92
2020/12/26 11:17:03;;;;;;;2.92;0.30;;;9.20;99.90;;;;;;6163980;23;20428;-91
2020/12/26 11:19:41;;;;;;;1.27;0.20;;;9.30;99.90;;;;;;6163092;23;20027;-92
2020/12/26 11:22:22;;;;;;;2.20;0.50;;;9.40;99.90;;;;;;6187169;23;20027;-92
2020/12/26 11:25:00;;;;;;;0.55;0.30;;;9.50;99.90;;;;;;6163015;23;20494;-92
2020/12/26 11:27:42;;;;;;;2.85;0.73;;;9.50;99.90;;;;;;6162662;23;20027;-92
2020/12/26 11:30:23;;;;;;;1.23;0.20;;;9.60;99.90;;;;;;6162049;23;20013;-91
2020/12/26 11:33:05;;;;;;;1.70;0.47;;;9.70;99.90;;;;;;6164394;23;20067;-92
2020/12/26 11:35:49;;;;;;;3.85;0.70;;;9.70;99.90;;;;;;6162711;23;20017;-92
2020/12/26 11:38:29;;;;;;;2.40;0.90;;;9.70;99.90;;;;;;6163064;23;20013;-91
2020/12/26 11:41:17;;;;;;;3.40;1.30;;;9.70;99.90;;;;;;6164450;23;20083;-92
2020/12/26 11:44:02;;;;;;;2.08;0.90;;;9.70;99.90;;;;;;6186684;23;20442;-91
2020/12/26 11:46:43;;;;;;;4.15;1.17;;;9.70;99.90;;;;;;6162595;23;20024;-91
2020/12/26 11:49:28;;;;;;;5.93;1.05;;;9.70;99.90;;;;;;6163722;23;20024;-91
2020/12/26 11:52:12;;;;;;;;;;;9.70;99.90;;;;;;6164791;23;20097;-92
2020/12/26 11:54:49;;;;;;;4.10;0.82;;;9.80;99.90;;;;;;6163163;23;19924;-92
2020/12/26 11:57:26;;;;;;;2.83;1.00;;;9.90;99.90;;;;;;6161239;23;20013;-92
2020/12/26 12:00:10;;;;;;;6.43;1.60;;;10.00;99.90;;;;;;6165996;23;20032;-92
2020/12/26 12:02:52;;;;;;;4.60;0.98;;;10.00;99.90;;;;;;6164977;23;20017;-92
2020/12/26 12:05:27;;;;;;;3.05;0.55;;;10.00;99.90;;;;;;6161849;23;20049;-93
2020/12/26 12:08:05;;;;;;;4.60;0.93;;;10.00;99.90;;;;;;6162122;23;20017;-93
2020/12/26 12:10:47;;;;;;;3.70;0.70;;;10.10;99.90;;;;;;6163204;23;20028;-92
2020/12/26 12:13:30;;;;;;;8.02;1.33;;;10.10;99.90;;;;;;6163116;23;20104;-92
2020/12/26 12:16:15;;;;;;;8.27;0.93;;;10.10;99.90;;;;;;6163239;23;20325;-93
2020/12/26 12:18:51;;;;;;;4.22;0.60;;;10.20;99.90;;;;;;6160916;23;20021;-92
2020/12/26 12:21:36;;;;;;;8.07;0.80;;;10.20;99.90;;;;;;6163978;23;20072;-93
2020/12/26 12:24:18;;;;;;;3.08;0.60;;;10.30;99.90;;;;;;6163940;23;20040;-93
2020/12/26 12:27:14;;;;;;;4.28;0.68;;;10.40;99.90;;;;;;6167540;23;20024;-93
2020/12/26 12:30:00;;;;;;;4.13;1.40;;;10.40;99.90;;;;;;6166085;23;20030;-92
2020/12/26 12:32:38;;;;;;;4.97;0.50;;;10.50;99.90;;;;;;6163408;23;20092;-92
2020/12/26 12:35:24;;;;;;;4.70;0.85;;;10.50;99.90;;;;;;6163760;23;20040;-94
2020/12/26 12:38:13;;;;;;;5.40;0.68;;;10.50;99.90;;;;;;6165074;23;20441;-93
2020/12/26 12:40:57;;;;;;;4.85;0.90;;;10.60;99.90;;;;;;6166225;23;20017;-93
2020/12/26 12:43:44;;;;;;;4.78;0.65;;;10.60;99.90;;;;;;6165526;23;20021;-92
2020/12/26 12:46:25;;;;;;;6.70;0.70;;;10.60;99.90;;;;;;6188371;23;20547;-92
2020/12/26 12:49:02;;;;;;;6.40;1.20;;;10.60;99.90;;;;;;6168915;23;20023;-91
2020/12/26 12:51:44;;;;;;;2.05;0.60;;;10.50;99.90;;;;;;6164749;23;20081;-91
2020/12/26 12:54:23;;;;;;;4.10;1.02;;;10.40;99.90;;;;;;6164261;23;20013;-91
2020/12/26 12:57:05;;;;;;;6.00;1.30;;;10.30;99.90;;;;;;6164642;23;20021;-92
2020/12/26 12:59:51;;;;;;;5.45;0.55;;;10.30;99.90;;;;;;6164357;23;20025;-92
2020/12/26 13:02:37;;;;;;;5.40;0.52;;;10.20;99.90;;;;;;6164526;23;20337;-93
2020/12/26 13:05:24;;;;;;;3.47;0.77;;;10.20;99.90;;;;;;6165611;23;20065;-92
2020/12/26 13:08:08;;;;;;;5.15;0.85;;;10.20;99.90;;;;;;6164582;23;20032;-93
2020/12/26 13:10:48;;;;;;;;;;;10.20;99.90;;;;;;6165193;23;20017;-92
2020/12/26 13:13:25;;;;;;;4.82;0.82;;;10.20;99.90;;;;;;6163779;23;20251;-93
2020/12/26 13:16:05;;;;;;;5.53;0.77;;;10.20;99.90;;;;;;6163684;23;20021;-93
2020/12/26 13:18:53;;;;;;;3.45;0.65;;;10.20;99.90;;;;;;6164794;23;20017;-92
2020/12/26 13:21:41;;;;;;;6.18;0.68;;;10.20;99.90;;;;;;6165468;23;20048;-92
2020/12/26 13:24:27;;;;;;;5.90;1.00;;;10.20;99.90;;;;;;6164201;23;20437;-92
2020/12/26 13:27:13;;;;;;;3.88;1.00;;;10.20;99.90;;;;;;6166640;23;20020;-93
2020/12/26 13:29:55;;;;;;;8.15;1.20;;;10.20;99.90;;;;;;6164106;23;20021;-90
2020/12/26 13:32:46;;;;;;;7.47;0.90;;;10.20;99.90;;;;;;6187327;23;20080;-90
2020/12/26 13:35:34;;;;;;;3.60;0.85;;;10.30;99.90;;;;;;6162353;23;20068;-90
2020/12/26 13:38:21;;;;;;;4.15;1.23;;;10.30;99.90;;;;;;6164419;23;20027;-91
2020/12/26 13:41:01;;;;;;;3.38;1.33;;;10.30;99.90;;;;;;6164412;23;20013;-90
2020/12/26 13:43:51;;;;;;;3.20;0.90;;;10.30;99.90;;;;;;6165555;23;20031;-92
2020/12/26 13:46:31;;;;;;;6.13;0.77;;;10.40;99.90;;;;;;6164276;23;20017;-92
2020/12/26 13:49:15;;;;;;;4.40;0.70;;;10.40;99.90;;;;;;6165040;23;20017;-91
2020/12/26 13:51:57;;;;;;;4.95;0.68;;;10.40;99.90;;;;;;6164664;23;20104;-93
2020/12/26 13:54:39;;;;;;;5.68;0.57;;;10.40;99.90;;;;;;6163830;23;20084;-90
2020/12/26 13:57:21;;;;;;;4.22;1.15;;;10.40;99.90;;;;;;6163651;23;20021;-91
2020/12/26 14:00:00;;;;;;;7.05;3.45;;;10.40;99.90;;;;;;6164433;23;20337;-90
2020/12/26 14:02:45;;;;;;;7.25;1.88;;;10.30;99.90;;;;;;6164030;23;20021;-90
2020/12/26 14:05:31;;;;;;;4.18;0.90;;;10.30;99.90;;;;;;6164630;23;20017;-91
2020/12/26 14:08:18;;;;;;;1.35;0.85;;;10.30;99.90;;;;;;6165371;23;20024;-93
2020/12/26 14:11:05;;;;;;;5.13;1.20;;;10.30;99.90;;;;;;6164986;23;20017;-90
2020/12/26 14:13:53;;;;;;;2.25;0.63;;;10.30;99.90;;;;;;6164256;23;20340;-91